createdAt,value
2022-12-19T00:00:26.714Z,1.08
2022-12-19T00:01:26.811Z,1.07
2022-12-19T00:02:26.818Z,1.07
2022-12-19T00:03:26.855Z,1.08
2022-12-19T00:04:26.706Z,1.08
2022-12-19T00:05:26.659Z,1.11
2022-12-19T00:06:26.646Z,1.10
2022-12-19T00:07:26.636Z,1.10
2022-12-19T00:08:26.657Z,1.10
2022-12-19T00:09:26.628Z,1.13
2022-12-19T00:10:26.643Z,1.13
2022-12-19T00:11:26.589Z,1.14
2022-12-19T00:12:26.641Z,1.14
2022-12-19T00:13:26.566Z,1.13
2022-12-19T00:14:26.590Z,1.11
2022-12-19T00:15:26.549Z,1.13
2022-12-19T00:16:26.569Z,1.11
2022-12-19T00:17:26.569Z,1.11
2022-12-19T00:18:26.539Z,1.11
2022-12-19T00:19:26.503Z,1.14
2022-12-19T00:20:26.544Z,1.14
2022-12-19T00:21:26.487Z,1.14
2022-12-19T00:22:26.468Z,1.16
2022-12-19T00:23:26.458Z,1.17
2022-12-19T00:24:26.447Z,1.18
2022-12-19T00:25:26.428Z,1.18
2022-12-19T00:26:26.458Z,1.20
2022-12-19T00:27:26.411Z,1.21
2022-12-19T00:28:26.401Z,1.20
2022-12-19T00:29:26.406Z,1.21
2022-12-19T00:30:26.416Z,1.21
2022-12-19T00:31:26.429Z,1.21
2022-12-19T00:32:26.367Z,1.24
2022-12-19T00:33:26.357Z,1.21
2022-12-19T00:34:26.388Z,1.24
2022-12-19T00:35:26.360Z,1.24
2022-12-19T00:36:26.371Z,1.20
2022-12-19T00:37:26.294Z,1.24
2022-12-19T00:38:26.289Z,1.24
2022-12-19T00:39:26.271Z,1.25
2022-12-19T00:40:26.265Z,1.24
2022-12-19T00:41:26.271Z,1.25
2022-12-19T00:42:26.248Z,1.21
2022-12-19T00:43:26.232Z,1.24
2022-12-19T00:44:26.228Z,1.25
2022-12-19T00:45:26.239Z,1.26
2022-12-19T00:46:26.253Z,1.26
2022-12-19T00:47:26.194Z,1.26
2022-12-19T00:48:26.175Z,1.28
2022-12-19T00:49:26.165Z,1.28
2022-12-19T00:50:26.153Z,1.28
2022-12-19T00:51:26.158Z,1.28
2022-12-19T00:52:26.146Z,1.26
2022-12-19T00:53:26.114Z,1.28
2022-12-19T00:54:26.156Z,1.26
2022-12-19T00:55:26.092Z,1.26
2022-12-19T00:56:26.107Z,1.28
2022-12-19T00:57:26.073Z,1.26
2022-12-19T00:58:26.066Z,1.31
2022-12-19T00:59:26.883Z,1.29
2022-12-19T01:00:26.046Z,1.29
2022-12-19T01:01:26.206Z,1.29
2022-12-19T01:02:26.186Z,1.29
2022-12-19T01:03:26.004Z,1.31
2022-12-19T01:04:28.651Z,1.32
2022-12-19T01:05:26.005Z,1.31
2022-12-19T01:06:26.001Z,1.32
2022-12-19T01:07:25.964Z,1.31
2022-12-19T01:08:25.969Z,1.31
2022-12-19T01:09:26.060Z,1.31
2022-12-19T01:10:25.952Z,1.32
2022-12-19T01:11:25.941Z,1.34
2022-12-19T01:12:25.913Z,1.32
2022-12-19T01:13:25.897Z,1.32
2022-12-19T01:14:25.879Z,1.32
2022-12-19T01:15:25.871Z,1.35
2022-12-19T01:16:25.928Z,1.35
2022-12-19T01:17:26.780Z,1.36
2022-12-19T01:18:25.837Z,1.36
2022-12-19T01:19:25.830Z,1.39
2022-12-19T01:20:29.527Z,1.38
2022-12-19T01:21:25.827Z,1.38
2022-12-19T01:22:25.831Z,1.36
2022-12-19T01:23:25.783Z,1.38
2022-12-19T01:24:25.769Z,1.39
2022-12-19T01:25:25.777Z,1.39
2022-12-19T01:26:25.775Z,1.42
2022-12-19T01:27:25.773Z,1.43
2022-12-19T01:28:25.747Z,1.44
2022-12-19T01:29:25.721Z,1.46
2022-12-19T01:30:26.060Z,1.46
2022-12-19T01:31:25.773Z,1.47
2022-12-19T01:32:25.687Z,1.46
2022-12-19T01:33:25.670Z,1.47
2022-12-19T01:34:25.674Z,1.47
2022-12-19T01:35:25.663Z,1.47
2022-12-19T01:36:25.659Z,1.50
2022-12-19T01:37:25.621Z,1.49
2022-12-19T01:38:25.613Z,1.50
2022-12-19T01:39:25.598Z,1.49
2022-12-19T01:40:25.592Z,1.47
2022-12-19T01:41:25.631Z,1.49
2022-12-19T01:42:25.573Z,1.49
2022-12-19T01:43:25.558Z,1.50
2022-12-19T01:44:25.547Z,1.52
2022-12-19T01:45:31.863Z,1.50
2022-12-19T01:46:25.602Z,1.52
2022-12-19T01:47:25.533Z,1.53
2022-12-19T01:48:25.502Z,1.52
2022-12-19T01:49:25.499Z,1.53
2022-12-19T01:50:25.483Z,1.53
2022-12-19T01:51:25.510Z,1.53
2022-12-19T01:52:25.456Z,1.53
2022-12-19T01:53:25.451Z,1.50
2022-12-19T01:54:25.431Z,1.50
2022-12-19T01:55:25.424Z,1.53
2022-12-19T01:56:25.414Z,1.53
2022-12-19T01:57:25.377Z,1.54
2022-12-19T01:58:25.364Z,1.53
2022-12-19T01:59:25.386Z,1.53
2022-12-19T02:00:25.347Z,1.53
2022-12-19T02:01:25.531Z,1.53
2022-12-19T02:02:25.383Z,1.54
2022-12-19T02:03:25.322Z,1.56
2022-12-19T02:04:25.293Z,1.56
2022-12-19T02:05:25.279Z,1.57
2022-12-19T02:06:25.294Z,1.56
2022-12-19T02:07:25.290Z,1.60
2022-12-19T02:08:25.257Z,1.60
2022-12-19T02:09:25.243Z,1.57
2022-12-19T02:10:25.231Z,1.60
2022-12-19T02:11:25.236Z,1.61
2022-12-19T02:12:25.212Z,1.61
2022-12-19T02:13:25.198Z,1.61
2022-12-19T02:14:25.210Z,1.63
2022-12-19T02:15:25.172Z,1.64
2022-12-19T02:16:25.279Z,1.64
2022-12-19T02:17:25.196Z,1.63
2022-12-19T02:18:25.140Z,1.65
2022-12-19T02:19:25.129Z,1.65
2022-12-19T02:20:25.127Z,1.67
2022-12-19T02:21:25.374Z,1.65
2022-12-19T02:22:25.102Z,1.65
2022-12-19T02:23:25.087Z,1.68
2022-12-19T02:24:25.104Z,1.70
2022-12-19T02:25:25.067Z,1.71
2022-12-19T02:26:25.084Z,1.71
2022-12-19T02:27:25.050Z,1.71
2022-12-19T02:28:25.052Z,1.71
2022-12-19T02:29:25.062Z,1.74
2022-12-19T02:30:25.011Z,1.74
2022-12-19T02:31:25.077Z,1.77
2022-12-19T02:32:24.991Z,1.75
2022-12-19T02:33:24.977Z,1.77
2022-12-19T02:34:24.976Z,1.77
2022-12-19T02:35:24.986Z,1.79
2022-12-19T02:36:24.974Z,1.79
2022-12-19T02:37:24.948Z,1.81
2022-12-19T02:38:24.957Z,1.79
2022-12-19T02:39:24.920Z,1.79
2022-12-19T02:40:24.908Z,1.77
2022-12-19T02:41:24.928Z,1.81
2022-12-19T02:42:24.891Z,1.79
2022-12-19T02:43:24.873Z,1.81
2022-12-19T02:44:24.862Z,1.82
2022-12-19T02:45:28.444Z,1.82
2022-12-19T02:46:24.931Z,1.83
2022-12-19T02:47:24.831Z,1.83
2022-12-19T02:48:24.819Z,1.82
2022-12-19T02:49:30.593Z,1.83
2022-12-19T02:50:24.804Z,1.83
2022-12-19T02:51:24.880Z,1.85
2022-12-19T02:52:24.792Z,1.85
2022-12-19T02:53:24.765Z,1.86
2022-12-19T02:54:24.768Z,1.86
2022-12-19T02:55:24.742Z,1.89
2022-12-19T02:56:24.753Z,1.90
2022-12-19T02:57:24.719Z,1.92
2022-12-19T02:58:24.711Z,1.92
2022-12-19T02:59:24.765Z,1.95
2022-12-19T03:00:24.700Z,1.95
2022-12-19T03:01:24.835Z,1.95
2022-12-19T03:02:24.850Z,1.98
2022-12-19T03:03:24.706Z,1.93
2022-12-19T03:04:24.675Z,2.00
2022-12-19T03:05:24.654Z,2.00
2022-12-19T03:06:24.646Z,2.02
2022-12-19T03:07:24.611Z,2.02
2022-12-19T03:08:24.611Z,2.04
2022-12-19T03:09:24.588Z,2.05
2022-12-19T03:10:24.589Z,2.07
2022-12-19T03:11:24.597Z,2.07
2022-12-19T03:12:24.559Z,2.07
2022-12-19T03:13:24.557Z,2.08
2022-12-19T03:14:24.568Z,2.08
2022-12-19T03:15:24.555Z,2.09
2022-12-19T03:16:24.609Z,2.09
2022-12-19T03:17:24.565Z,2.09
2022-12-19T03:18:24.499Z,2.09
2022-12-19T03:19:24.486Z,2.09
2022-12-19T03:20:24.466Z,2.09
2022-12-19T03:21:24.490Z,2.11
2022-12-19T03:22:24.481Z,2.11
2022-12-19T03:23:24.448Z,2.12
2022-12-19T03:24:24.456Z,2.14
2022-12-19T03:25:24.430Z,2.19
2022-12-19T03:26:24.427Z,2.15
2022-12-19T03:27:24.397Z,2.15
2022-12-19T03:28:24.382Z,2.15
2022-12-19T03:29:24.384Z,2.18
2022-12-19T03:30:24.366Z,2.19
2022-12-19T03:31:24.383Z,2.20
2022-12-19T03:32:24.339Z,2.20
2022-12-19T03:33:24.369Z,2.22
2022-12-19T03:34:24.323Z,2.25
2022-12-19T03:35:24.315Z,2.23
2022-12-19T03:36:24.338Z,2.23
2022-12-19T03:37:24.317Z,2.25
2022-12-19T03:38:24.267Z,2.26
2022-12-19T03:39:24.279Z,2.29
2022-12-19T03:40:24.254Z,2.29
2022-12-19T03:41:24.280Z,2.29
2022-12-19T03:42:24.230Z,2.29
2022-12-19T03:43:24.237Z,2.30
2022-12-19T03:44:24.210Z,2.30
2022-12-19T03:45:24.199Z,2.32
2022-12-19T03:46:24.263Z,2.32
2022-12-19T03:47:24.198Z,2.32
2022-12-19T03:48:24.163Z,2.30
2022-12-19T03:49:24.157Z,2.32
2022-12-19T03:50:24.162Z,2.32
2022-12-19T03:51:24.202Z,2.32
2022-12-19T03:52:24.136Z,2.32
2022-12-19T03:53:24.122Z,2.33
2022-12-19T03:54:24.109Z,2.33
2022-12-19T03:55:24.100Z,2.36
2022-12-19T03:56:24.101Z,2.38
2022-12-19T03:57:24.095Z,2.37
2022-12-19T03:58:24.051Z,2.37
2022-12-19T03:59:24.113Z,2.38
2022-12-19T04:00:24.033Z,2.37
2022-12-19T04:01:24.181Z,2.37
2022-12-19T04:02:24.100Z,2.37
2022-12-19T04:03:24.013Z,2.38
2022-12-19T04:04:23.994Z,2.40
2022-12-19T04:05:23.984Z,2.40
2022-12-19T04:06:23.985Z,2.41
2022-12-19T04:07:23.967Z,2.41
2022-12-19T04:08:23.951Z,2.41
2022-12-19T04:09:23.940Z,2.43
2022-12-19T04:10:23.936Z,2.45
2022-12-19T04:11:23.932Z,2.45
2022-12-19T04:12:23.903Z,2.47
2022-12-19T04:13:23.899Z,2.45
2022-12-19T04:14:23.877Z,2.45
2022-12-19T04:15:23.866Z,2.45
2022-12-19T04:16:23.886Z,2.47
2022-12-19T04:17:23.841Z,2.47
2022-12-19T04:18:23.845Z,2.45
2022-12-19T04:19:23.827Z,2.45
2022-12-19T04:20:23.814Z,2.47
2022-12-19T04:21:23.817Z,2.48
2022-12-19T04:22:23.817Z,2.48
2022-12-19T04:23:23.770Z,2.48
2022-12-19T04:24:23.769Z,2.50
2022-12-19T04:25:29.043Z,2.50
2022-12-19T04:26:23.780Z,2.51
2022-12-19T04:27:23.744Z,2.55
2022-12-19T04:28:23.727Z,2.51
2022-12-19T04:29:23.708Z,2.53
2022-12-19T04:30:23.700Z,2.50
2022-12-19T04:31:24.388Z,2.51
2022-12-19T04:32:23.680Z,2.51
2022-12-19T04:33:23.667Z,2.53
2022-12-19T04:34:23.657Z,2.53
2022-12-19T04:35:23.640Z,2.56
2022-12-19T04:36:23.651Z,2.55
2022-12-19T04:37:23.622Z,2.56
2022-12-19T04:38:23.613Z,2.56
2022-12-19T04:39:23.592Z,2.59
2022-12-19T04:40:23.589Z,2.56
2022-12-19T04:41:23.595Z,2.59
2022-12-19T04:42:23.567Z,2.61
2022-12-19T04:43:23.575Z,2.61
2022-12-19T04:44:23.542Z,2.61
2022-12-19T04:45:23.529Z,2.62
2022-12-19T04:46:23.565Z,2.62
2022-12-19T04:47:23.510Z,2.62
2022-12-19T04:48:23.513Z,2.62
2022-12-19T04:49:23.486Z,2.63
2022-12-19T04:50:23.489Z,2.63
2022-12-19T04:51:23.485Z,2.65
2022-12-19T04:52:23.455Z,2.65
2022-12-19T04:53:23.449Z,2.66
2022-12-19T04:54:23.437Z,2.68
2022-12-19T04:55:23.411Z,2.68
2022-12-19T04:56:23.434Z,2.69
2022-12-19T04:57:23.396Z,2.71
2022-12-19T04:58:23.401Z,2.71
2022-12-19T04:59:23.376Z,2.69
2022-12-19T05:00:23.375Z,2.69
2022-12-19T05:01:23.478Z,2.71
2022-12-19T05:02:23.466Z,2.74
2022-12-19T05:03:23.375Z,2.74
2022-12-19T05:04:23.331Z,2.74
2022-12-19T05:05:23.305Z,2.76
2022-12-19T05:06:23.328Z,2.76
2022-12-19T05:07:23.282Z,2.76
2022-12-19T05:08:23.278Z,2.76
2022-12-19T05:09:23.259Z,2.79
2022-12-19T05:10:23.252Z,2.79
2022-12-19T05:11:23.272Z,2.79
2022-12-19T05:12:23.231Z,2.79
2022-12-19T05:13:23.227Z,2.80
2022-12-19T05:14:23.221Z,2.80
2022-12-19T05:15:23.202Z,2.81
2022-12-19T05:16:23.246Z,2.83
2022-12-19T05:17:23.179Z,2.84
2022-12-19T05:18:23.163Z,2.86
2022-12-19T05:19:23.159Z,2.87
2022-12-19T05:20:23.135Z,2.87
2022-12-19T05:21:23.156Z,2.90
2022-12-19T05:22:23.116Z,2.90
2022-12-19T05:23:23.110Z,2.92
2022-12-19T05:24:23.093Z,2.90
2022-12-19T05:25:23.088Z,2.94
2022-12-19T05:26:23.101Z,2.95
2022-12-19T05:27:23.062Z,2.95
2022-12-19T05:28:23.047Z,2.99
2022-12-19T05:29:23.040Z,2.99
2022-12-19T05:30:23.022Z,3.01
2022-12-19T05:31:23.093Z,3.02
2022-12-19T05:32:22.999Z,3.02
2022-12-19T05:33:22.999Z,3.02
2022-12-19T05:34:22.977Z,3.02
2022-12-19T05:35:22.973Z,3.05
2022-12-19T05:36:26.420Z,3.07
2022-12-19T05:37:22.962Z,3.10
2022-12-19T05:38:22.936Z,3.10
2022-12-19T05:39:22.931Z,3.08
2022-12-19T05:40:22.911Z,3.08
2022-12-19T05:41:22.925Z,3.13
2022-12-19T05:42:22.897Z,3.19
2022-12-19T05:43:22.887Z,3.22
2022-12-19T05:44:22.874Z,3.23
2022-12-19T05:45:22.862Z,3.26
2022-12-19T05:46:22.921Z,3.26
2022-12-19T05:47:22.834Z,3.28
2022-12-19T05:48:22.829Z,3.30
2022-12-19T05:49:22.814Z,3.30
2022-12-19T05:50:22.808Z,3.33
2022-12-19T05:51:22.812Z,3.41
2022-12-19T05:52:22.780Z,3.49
2022-12-19T05:53:25.990Z,3.53
2022-12-19T05:54:22.760Z,3.56
2022-12-19T05:55:22.738Z,3.53
2022-12-19T05:56:22.785Z,3.54
2022-12-19T05:57:22.722Z,3.56
2022-12-19T05:58:22.715Z,3.56
2022-12-19T05:59:22.703Z,3.56
2022-12-19T06:00:22.700Z,3.60
2022-12-19T06:01:22.758Z,3.64
2022-12-19T06:02:22.810Z,3.64
2022-12-19T06:03:22.782Z,3.71
2022-12-19T06:04:22.639Z,3.68
2022-12-19T06:05:22.651Z,3.67
2022-12-19T06:06:22.654Z,3.68
2022-12-19T06:07:22.619Z,3.72
2022-12-19T06:08:22.600Z,3.75
2022-12-19T06:09:22.584Z,3.78
2022-12-19T06:10:22.581Z,3.81
2022-12-19T06:11:22.592Z,3.82
2022-12-19T06:12:22.553Z,3.86
2022-12-19T06:13:25.094Z,3.86
2022-12-19T06:14:22.526Z,3.88
2022-12-19T06:15:22.518Z,3.86
2022-12-19T06:16:22.644Z,3.90
2022-12-19T06:17:22.518Z,3.95
2022-12-19T06:18:22.483Z,3.98
2022-12-19T06:19:22.477Z,4.02
2022-12-19T06:20:22.467Z,4.06
2022-12-19T06:21:22.485Z,4.10
2022-12-19T06:22:22.437Z,4.08
2022-12-19T06:23:22.434Z,4.10
2022-12-19T06:24:22.420Z,4.07
2022-12-19T06:25:22.405Z,4.11
2022-12-19T06:26:22.442Z,4.13
2022-12-19T06:27:22.387Z,4.14
2022-12-19T06:28:22.371Z,4.14
2022-12-19T06:29:22.373Z,4.16
2022-12-19T06:30:22.350Z,4.18
2022-12-19T06:31:22.400Z,4.24
2022-12-19T06:32:22.329Z,4.25
2022-12-19T06:33:22.318Z,4.25
2022-12-19T06:34:55.203Z,4.28
2022-12-19T06:35:22.301Z,4.29
2022-12-19T06:36:22.308Z,4.31
2022-12-19T06:37:22.273Z,4.29
2022-12-19T06:38:22.255Z,4.31
2022-12-19T06:39:22.249Z,4.32
2022-12-19T06:40:22.241Z,4.39
2022-12-19T06:41:22.256Z,4.44
2022-12-19T06:42:22.215Z,4.44
2022-12-19T06:43:22.206Z,4.43
2022-12-19T06:44:22.195Z,4.44
2022-12-19T06:45:22.185Z,4.43
2022-12-19T06:46:22.193Z,4.43
2022-12-19T06:47:22.163Z,4.49
2022-12-19T06:48:22.146Z,4.51
2022-12-19T06:49:22.139Z,4.51
2022-12-19T06:50:22.125Z,4.50
2022-12-19T06:51:22.143Z,4.50
2022-12-19T06:52:22.100Z,4.53
2022-12-19T06:53:22.119Z,4.50
2022-12-19T06:54:22.079Z,4.49
2022-12-19T06:55:22.067Z,4.54
2022-12-19T06:56:22.061Z,4.56
2022-12-19T06:57:22.088Z,4.61
2022-12-19T06:58:24.328Z,4.61
2022-12-19T06:59:22.027Z,4.59
2022-12-19T07:00:22.018Z,4.61
2022-12-19T07:01:22.161Z,4.65
2022-12-19T07:02:22.112Z,4.64
2022-12-19T07:03:22.010Z,4.68
2022-12-19T07:04:21.963Z,4.67
2022-12-19T07:05:21.960Z,4.69
2022-12-19T07:06:21.940Z,4.64
2022-12-19T07:07:21.935Z,4.62
2022-12-19T07:08:21.928Z,4.61
2022-12-19T07:09:21.948Z,4.67
2022-12-19T07:10:21.932Z,4.74
2022-12-19T07:11:21.885Z,4.77
2022-12-19T07:12:21.882Z,4.75
2022-12-19T07:13:21.869Z,4.75
2022-12-19T07:14:21.853Z,4.77
2022-12-19T07:15:21.865Z,4.79
2022-12-19T07:16:21.864Z,4.77
2022-12-19T07:17:21.817Z,4.83
2022-12-19T07:18:21.819Z,4.84
2022-12-19T07:19:21.798Z,4.86
2022-12-19T07:20:21.839Z,4.90
2022-12-19T07:21:21.807Z,4.93
2022-12-19T07:22:21.828Z,4.93
2022-12-19T07:23:21.753Z,4.94
2022-12-19T07:24:21.780Z,4.97
2022-12-19T07:25:21.771Z,4.94
2022-12-19T07:26:21.749Z,4.96
2022-12-19T07:27:21.777Z,4.96
2022-12-19T07:28:21.701Z,4.96
2022-12-19T07:29:21.680Z,4.97
2022-12-19T07:30:21.702Z,4.97
2022-12-19T07:31:21.676Z,5.02
2022-12-19T07:32:21.651Z,5.04
2022-12-19T07:33:22.256Z,5.01
2022-12-19T07:34:21.637Z,4.99
2022-12-19T07:35:21.624Z,4.97
2022-12-19T07:36:21.613Z,4.99
2022-12-19T07:37:21.604Z,5.02
2022-12-19T07:38:21.633Z,4.99
2022-12-19T07:39:21.616Z,5.05
2022-12-19T07:40:21.560Z,5.06
2022-12-19T07:41:21.541Z,5.11
2022-12-19T07:42:21.537Z,5.11
2022-12-19T07:43:21.523Z,5.08
2022-12-19T07:44:21.512Z,5.12
2022-12-19T07:45:21.536Z,5.12
2022-12-19T07:46:21.520Z,5.17
2022-12-19T07:47:21.480Z,5.17
2022-12-19T07:48:21.470Z,5.14
2022-12-19T07:49:22.949Z,5.12
2022-12-19T07:50:21.469Z,5.14
2022-12-19T07:51:21.729Z,5.17
2022-12-19T07:52:21.424Z,5.17
2022-12-19T07:53:21.409Z,5.20
2022-12-19T07:54:21.401Z,5.19
2022-12-19T07:55:21.395Z,5.19
2022-12-19T07:56:21.378Z,5.17
2022-12-19T07:57:21.393Z,5.12
2022-12-19T07:58:21.372Z,5.15
2022-12-19T07:59:25.702Z,5.20
2022-12-19T08:00:21.369Z,5.23
2022-12-19T08:01:21.453Z,5.22
2022-12-19T08:02:21.465Z,5.23
2022-12-19T08:03:21.395Z,5.24
2022-12-19T08:04:21.293Z,5.23
2022-12-19T08:05:21.922Z,5.22
2022-12-19T08:06:21.266Z,5.24
2022-12-19T08:07:21.256Z,5.30
2022-12-19T08:08:21.244Z,5.30
2022-12-19T08:09:21.265Z,5.32
2022-12-19T08:10:21.227Z,5.33
2022-12-19T08:11:21.210Z,5.35
2022-12-19T08:12:21.194Z,5.33
2022-12-19T08:13:21.189Z,5.33
2022-12-19T08:14:21.183Z,5.33
2022-12-19T08:15:21.202Z,5.35
2022-12-19T08:16:21.157Z,5.37
2022-12-19T08:17:21.577Z,5.33
2022-12-19T08:18:21.143Z,5.38
2022-12-19T08:19:24.718Z,5.38
2022-12-19T08:20:21.116Z,5.38
2022-12-19T08:21:21.131Z,5.33
2022-12-19T08:22:21.090Z,5.33
2022-12-19T08:23:21.076Z,5.32
2022-12-19T08:24:21.076Z,5.30
2022-12-19T08:25:21.086Z,5.29
2022-12-19T08:26:21.034Z,5.30
2022-12-19T08:27:21.058Z,5.32
2022-12-19T08:28:21.011Z,5.32
2022-12-19T08:29:21.004Z,5.38
2022-12-19T08:30:20.995Z,5.42
2022-12-19T08:31:21.031Z,5.41
2022-12-19T08:32:21.776Z,5.42
2022-12-19T08:33:20.966Z,5.45
2022-12-19T08:34:20.943Z,5.44
2022-12-19T08:35:20.940Z,5.44
2022-12-19T08:36:20.926Z,5.44
2022-12-19T08:37:20.921Z,5.45
2022-12-19T08:38:20.927Z,5.48
2022-12-19T08:39:20.911Z,5.47
2022-12-19T08:40:20.899Z,5.47
2022-12-19T08:41:20.882Z,5.52
2022-12-19T08:42:20.856Z,5.56
2022-12-19T08:43:20.857Z,5.58
2022-12-19T08:44:20.876Z,5.59
2022-12-19T08:45:20.829Z,5.60
2022-12-19T08:46:20.940Z,5.62
2022-12-19T08:47:20.806Z,5.62
2022-12-19T08:48:20.785Z,5.65
2022-12-19T08:49:20.783Z,5.65
2022-12-19T08:50:20.794Z,5.66
2022-12-19T08:51:20.768Z,5.69
2022-12-19T08:52:20.736Z,5.74
2022-12-19T08:53:26.130Z,5.77
2022-12-19T08:54:20.735Z,5.75
2022-12-19T08:55:20.719Z,5.80
2022-12-19T08:56:20.909Z,5.80
2022-12-19T08:57:20.696Z,5.80
2022-12-19T08:58:20.676Z,5.84
2022-12-19T08:59:30.500Z,5.85
2022-12-19T09:00:20.689Z,5.85
2022-12-19T09:01:20.824Z,5.90
2022-12-19T09:02:20.795Z,5.88
2022-12-19T09:03:20.885Z,5.93
2022-12-19T09:05:57.538Z,5.95
2022-12-19T09:06:12.169Z,5.93
2022-12-19T09:06:21.977Z,5.98
2022-12-19T09:07:20.592Z,5.98
2022-12-19T09:08:20.588Z,5.95
2022-12-19T09:09:20.557Z,5.98
2022-12-19T09:10:20.549Z,5.98
2022-12-19T09:11:20.537Z,6.02
2022-12-19T09:12:20.530Z,6.03
2022-12-19T09:13:20.532Z,5.98
2022-12-19T09:14:21.160Z,5.96
2022-12-19T09:15:20.486Z,6.02
2022-12-19T09:16:20.501Z,6.01
2022-12-19T09:17:20.501Z,6.02
2022-12-19T09:18:20.458Z,6.08
2022-12-19T09:19:20.451Z,6.08
2022-12-19T09:20:23.344Z,6.06
2022-12-19T09:21:20.422Z,6.11
2022-12-19T09:22:20.425Z,6.14
2022-12-19T09:23:20.400Z,6.19
2022-12-19T09:24:20.405Z,6.19
2022-12-19T09:25:20.371Z,6.20
2022-12-19T09:26:20.390Z,6.21
2022-12-19T09:27:20.352Z,6.27
2022-12-19T09:28:28.188Z,6.24
2022-12-19T09:29:22.043Z,6.27
2022-12-19T09:30:20.319Z,6.27
2022-12-19T09:31:20.378Z,6.30
2022-12-19T09:32:20.338Z,6.32
2022-12-19T09:33:20.288Z,6.33
2022-12-19T09:34:20.285Z,6.35
2022-12-19T09:35:20.267Z,6.36
2022-12-19T09:36:20.270Z,6.42
2022-12-19T09:37:20.239Z,6.45
2022-12-19T09:38:20.273Z,6.43
2022-12-19T09:39:20.211Z,6.46
2022-12-19T09:40:20.209Z,6.43
2022-12-19T09:41:20.209Z,6.48
2022-12-19T09:42:20.207Z,6.51
2022-12-19T09:43:20.179Z,6.53
2022-12-19T09:44:20.191Z,6.55
2022-12-19T09:45:31.426Z,6.54
2022-12-19T09:46:20.235Z,6.51
2022-12-19T09:47:20.134Z,6.53
2022-12-19T09:48:24.490Z,6.55
2022-12-19T09:49:20.127Z,6.55
2022-12-19T09:50:20.098Z,6.58
2022-12-19T09:51:20.080Z,6.58
2022-12-19T09:52:20.073Z,6.61
2022-12-19T09:53:20.066Z,6.60
2022-12-19T09:54:20.049Z,6.60
2022-12-19T09:55:20.071Z,6.60
2022-12-19T09:56:20.024Z,6.60
2022-12-19T09:57:20.017Z,6.61
2022-12-19T09:58:20.006Z,6.63
2022-12-19T09:59:19.990Z,6.63
2022-12-19T10:00:19.983Z,6.64
2022-12-19T10:01:20.110Z,6.65
2022-12-19T10:02:20.136Z,6.69
2022-12-19T10:03:20.132Z,6.69
2022-12-19T10:04:19.929Z,6.71
2022-12-19T10:05:52.379Z,6.71
2022-12-19T10:07:21.232Z,6.71
2022-12-19T10:08:01.290Z,6.71
2022-12-19T10:08:19.892Z,6.75
2022-12-19T10:10:50.354Z,6.76
2022-12-19T10:12:55.951Z,6.75
2022-12-19T10:13:12.151Z,6.75
2022-12-19T10:14:02.889Z,6.75
2022-12-19T10:15:02.870Z,6.72
2022-12-19T10:16:02.898Z,6.73
2022-12-19T10:17:23.529Z,6.72
2022-12-19T10:18:02.874Z,6.78
2022-12-19T10:19:02.821Z,6.78
2022-12-19T10:20:02.820Z,6.81
2022-12-19T10:21:02.804Z,6.79
2022-12-19T10:22:19.431Z,6.79
2022-12-19T10:23:02.791Z,6.79
2022-12-19T10:24:02.828Z,6.82
2022-12-19T10:25:09.200Z,6.81
2022-12-19T10:26:02.757Z,6.79
2022-12-19T10:27:02.732Z,6.86
2022-12-19T10:28:02.738Z,6.90
2022-12-19T10:29:02.707Z,6.93
2022-12-19T10:30:02.738Z,6.91
2022-12-19T10:31:09.863Z,6.91
2022-12-19T10:32:02.772Z,6.97
2022-12-19T10:33:02.696Z,6.99
2022-12-19T10:34:02.685Z,6.99
2022-12-19T10:35:02.649Z,6.99
2022-12-19T10:36:02.723Z,7.04
2022-12-19T10:37:25.649Z,7.05
2022-12-19T10:38:02.624Z,7.01
2022-12-19T10:39:02.623Z,7.04
2022-12-19T10:40:02.654Z,7.05
2022-12-19T10:41:02.584Z,7.04
2022-12-19T10:42:02.644Z,7.07
2022-12-19T10:43:10.367Z,7.12
2022-12-19T10:44:02.595Z,7.12
2022-12-19T10:45:02.552Z,7.16
2022-12-19T10:46:02.711Z,7.15
2022-12-19T10:47:04.568Z,7.18
2022-12-19T10:48:02.513Z,7.21
2022-12-19T10:49:02.492Z,7.26
2022-12-19T10:50:08.980Z,7.24
2022-12-19T10:51:06.835Z,7.27
2022-12-19T10:52:02.511Z,7.27
2022-12-19T10:53:02.504Z,7.29
2022-12-19T10:54:02.455Z,7.30
2022-12-19T10:55:02.461Z,7.32
2022-12-19T10:56:02.408Z,7.34
2022-12-19T10:57:02.412Z,7.33
2022-12-19T10:58:02.378Z,7.37
2022-12-19T10:59:02.412Z,7.37
2022-12-19T11:00:02.382Z,7.36
2022-12-19T11:01:02.342Z,7.33
2022-12-19T11:02:04.937Z,7.30
2022-12-19T11:03:02.531Z,7.30
2022-12-19T11:04:02.310Z,7.33
2022-12-19T11:05:02.396Z,7.33
2022-12-19T11:06:02.301Z,7.34
2022-12-19T11:07:02.312Z,7.36
2022-12-19T11:08:02.261Z,7.34
2022-12-19T11:09:02.256Z,7.34
2022-12-19T11:10:23.847Z,7.34
2022-12-19T11:13:17.642Z,7.36
2022-12-19T11:29:26.118Z,7.34
2022-12-19T11:32:42.893Z,7.60
2022-12-19T11:33:39.692Z,7.57
2022-12-19T11:34:39.594Z,7.63
2022-12-19T11:35:39.618Z,7.66
2022-12-19T11:36:39.607Z,7.67
2022-12-19T11:37:39.602Z,7.69
2022-12-19T11:38:39.548Z,7.70
2022-12-19T11:39:39.541Z,7.71
2022-12-19T11:40:46.556Z,7.70
2022-12-19T11:41:39.549Z,7.76
2022-12-19T11:42:39.503Z,7.76
2022-12-19T11:43:44.903Z,7.74
2022-12-19T11:44:39.484Z,7.76
2022-12-19T11:45:39.476Z,7.77
2022-12-19T11:46:39.460Z,7.76
2022-12-19T11:47:39.467Z,7.81
2022-12-19T11:48:39.477Z,7.81
2022-12-19T11:49:39.445Z,7.81
2022-12-19T11:50:39.416Z,7.79
2022-12-19T11:51:39.412Z,7.76
2022-12-19T11:53:04.156Z,7.81
2022-12-19T11:53:39.393Z,7.84
2022-12-19T11:54:39.390Z,7.82
2022-12-19T11:55:39.371Z,7.85
2022-12-19T11:56:39.345Z,7.85
2022-12-19T11:57:39.349Z,7.88
2022-12-19T11:58:39.329Z,7.88
2022-12-19T11:59:39.343Z,7.94
2022-12-19T12:00:39.300Z,7.94
2022-12-19T12:01:39.351Z,7.92
2022-12-19T12:02:39.285Z,7.91
2022-12-19T12:03:39.342Z,7.94
2022-12-19T12:04:39.516Z,7.96
2022-12-19T12:05:39.251Z,7.99
2022-12-19T12:06:44.082Z,7.99
2022-12-19T12:08:37.115Z,7.95
2022-12-19T12:15:34.473Z,7.95
2022-12-19T12:32:05.400Z,7.99
2022-12-19T12:38:14.724Z,8.24
2022-12-19T12:38:28.127Z,8.27
2022-12-19T12:39:03.277Z,8.31
2022-12-19T12:40:03.231Z,8.29
2022-12-19T12:41:03.223Z,8.29
2022-12-19T12:42:03.214Z,8.24
2022-12-19T12:43:03.280Z,8.21
2022-12-19T12:44:03.185Z,8.24
2022-12-19T12:45:03.206Z,8.25
2022-12-19T12:46:03.186Z,8.27
2022-12-19T12:47:03.170Z,8.21
2022-12-19T12:48:03.143Z,8.27
2022-12-19T12:49:03.122Z,8.22
2022-12-19T12:50:03.117Z,8.24
2022-12-19T12:51:03.138Z,8.28
2022-12-19T12:52:03.103Z,8.28
2022-12-19T12:53:03.091Z,8.25
2022-12-19T12:54:03.084Z,8.27
2022-12-19T12:55:03.067Z,8.28
2022-12-19T12:56:03.088Z,8.28
2022-12-19T12:57:03.075Z,8.27
2022-12-19T12:58:03.028Z,8.27
2022-12-19T12:59:03.014Z,8.29
2022-12-19T13:00:03.002Z,8.29
2022-12-19T13:01:03.025Z,8.32
2022-12-19T13:02:03.148Z,8.34
2022-12-19T13:03:03.101Z,8.34
2022-12-19T13:04:02.972Z,8.32
2022-12-19T13:05:02.954Z,8.29
2022-12-19T13:06:02.946Z,8.29
2022-12-19T13:07:03.207Z,8.28
2022-12-19T13:08:02.924Z,8.28
2022-12-19T13:09:02.901Z,8.28
2022-12-19T13:10:02.892Z,8.27
2022-12-19T13:11:02.898Z,8.29
2022-12-19T13:12:02.868Z,8.32
2022-12-19T13:13:02.905Z,8.32
2022-12-19T13:14:02.851Z,8.32
2022-12-19T13:15:02.839Z,8.28
2022-12-19T13:16:02.822Z,8.31
2022-12-19T13:17:02.887Z,8.25
2022-12-19T13:18:02.841Z,8.28
2022-12-19T13:19:02.805Z,8.28
2022-12-19T13:20:02.784Z,8.29
2022-12-19T13:21:02.785Z,8.27
2022-12-19T13:22:02.756Z,8.25
2022-12-19T13:23:02.743Z,8.27
2022-12-19T13:24:02.756Z,8.25
2022-12-19T13:25:02.733Z,8.27
2022-12-19T13:26:02.708Z,8.28
2022-12-19T13:27:02.700Z,8.27
2022-12-19T13:28:02.765Z,8.22
2022-12-19T13:29:02.715Z,8.20
2022-12-19T13:30:02.666Z,8.20
2022-12-19T13:31:21.341Z,8.21
2022-12-19T13:32:02.662Z,8.22
2022-12-19T13:33:02.643Z,8.14
2022-12-19T13:34:02.618Z,8.12
2022-12-19T13:35:44.601Z,8.13
2022-12-19T13:40:10.816Z,8.14
2022-12-19T13:40:20.523Z,8.04
2022-12-19T13:41:07.318Z,8.04
2022-12-19T13:42:07.303Z,8.09
2022-12-19T13:43:10.860Z,8.09
2022-12-19T13:44:07.278Z,8.10
2022-12-19T13:45:07.275Z,8.09
2022-12-19T13:46:07.360Z,8.09
2022-12-19T13:47:07.246Z,8.04
2022-12-19T13:48:07.242Z,8.04
2022-12-19T13:49:07.222Z,8.00
2022-12-19T13:50:07.209Z,8.00
2022-12-19T13:51:07.193Z,8.02
2022-12-19T13:52:07.221Z,7.99
2022-12-19T13:53:07.174Z,8.03
2022-12-19T13:54:07.168Z,8.03
2022-12-19T13:55:07.150Z,8.02
2022-12-19T13:56:07.148Z,8.03
2022-12-19T13:57:09.516Z,8.06
2022-12-19T13:58:07.123Z,8.07
2022-12-19T13:59:07.104Z,8.04
2022-12-19T14:00:07.186Z,8.04
2022-12-19T14:01:07.179Z,8.06
2022-12-19T14:02:07.266Z,8.06
2022-12-19T14:03:07.369Z,8.03
2022-12-19T14:04:07.641Z,8.07
2022-12-19T14:05:07.044Z,8.10
2022-12-19T14:06:17.235Z,8.04
2022-12-19T14:07:07.026Z,8.02
2022-12-19T14:08:07.033Z,8.02
2022-12-19T14:11:27.087Z,8.06